sensor_id;sensor_type;location;lat;lon;timestamp;pressure;altitude;pressure_sealevel;temperature;humidity
27294;BME280;14785;52.556;13.430;2023-04-02T00:00:19;100367.75;;;7.74;100.00
27294;BME280;14785;52.556;13.430;2023-04-02T00:07:41;100393.75;;;7.51;100.00
27294;BME280;14785;52.556;13.430;2023-04-02T00:10:35;100389.03;;;7.45;100.00
27294;BME280;14785;52.556;13.430;2023-04-02T00:15:40;100394.81;;;7.03;100.00
27294;BME280;14785;52.556;13.430;2023-04-02T00:18:09;100400.38;;;7.09;100.00
27294;BME280;14785;52.556;13.430;2023-04-02T00:20:40;100398.44;;;6.92;100.00
27294;BME280;14785;52.556;13.430;2023-04-02T00:23:12;100408.56;;;6.87;100.00
27294;BME280;14785;52.556;13.430;2023-04-02T00:25:40;100401.88;;;7.21;100.00
27294;BME280;14785;52.556;13.430;2023-04-02T00:28:18;100403.56;;;7.13;100.00
27294;BME280;14785;52.556;13.430;2023-04-02T00:30:52;100409.38;;;7.35;100.00
27294;BME280;14785;52.556;13.430;2023-04-02T00:33:21;100407.94;;;7.60;100.00
27294;BME280;14785;52.556;13.430;2023-04-02T00:35:49;100417.13;;;7.56;100.00
27294;BME280;14785;52.556;13.430;2023-04-02T00:38:28;100417.69;;;7.59;100.00
27294;BME280;14785;52.556;13.430;2023-04-02T00:40:57;100428.75;;;7.26;100.00
27294;BME280;14785;52.556;13.430;2023-04-02T00:43:30;100433.75;;;7.01;100.00
27294;BME280;14785;52.556;13.430;2023-04-02T00:45:59;100429.69;;;7.35;100.00
27294;BME280;14785;52.556;13.430;2023-04-02T00:51:21;100439.47;;;7.34;100.00
27294;BME280;14785;52.556;13.430;2023-04-02T00:53:51;100440.56;;;7.32;100.00
27294;BME280;14785;52.556;13.430;2023-04-02T01:01:51;100448.31;;;7.62;100.00
27294;BME280;14785;52.556;13.430;2023-04-02T01:04:34;100455.06;;;7.37;100.00
27294;BME280;14785;52.556;13.430;2023-04-02T01:07:03;100454.03;;;7.67;100.00
27294;BME280;14785;52.556;13.430;2023-04-02T01:18:19;100470.03;;;7.75;100.00
27294;BME280;14785;52.556;13.430;2023-04-02T01:31:28;100490.25;;;7.66;100.00
27294;BME280;14785;52.556;13.430;2023-04-02T01:33:55;100495.38;;;7.77;100.00
27294;BME280;14785;52.556;13.430;2023-04-02T01:42:25;100505.19;;;7.29;100.00
27294;BME280;14785;52.556;13.430;2023-04-02T01:45:07;100505.19;;;7.10;100.00
27294;BME280;14785;52.556;13.430;2023-04-02T01:47:36;100519.41;;;7.28;100.00
27294;BME280;14785;52.556;13.430;2023-04-02T01:50:23;100521.88;;;7.49;100.00
27294;BME280;14785;52.556;13.430;2023-04-02T01:52:53;100525.06;;;7.81;100.00
27294;BME280;14785;52.556;13.430;2023-04-02T01:55:40;100520.78;;;7.13;100.00
27294;BME280;14785;52.556;13.430;2023-04-02T01:58:08;100540.84;;;7.25;100.00
27294;BME280;14785;52.556;13.430;2023-04-02T02:00:35;100542.63;;;7.44;100.00
27294;BME280;14785;52.556;13.430;2023-04-02T02:03:02;100545.28;;;7.34;100.00
27294;BME280;14785;52.556;13.430;2023-04-02T02:05:29;100551.81;;;7.59;100.00
27294;BME280;14785;52.556;13.430;2023-04-02T02:07:55;100558.03;;;6.91;100.00
27294;BME280;14785;52.556;13.430;2023-04-02T02:10:31;100554.91;;;6.67;100.00
27294;BME280;14785;52.556;13.430;2023-04-02T02:12:57;100577.91;;;6.76;100.00
27294;BME280;14785;52.556;13.430;2023-04-02T02:15:24;100573.38;;;6.97;100.00
27294;BME280;14785;52.556;13.430;2023-04-02T02:17:59;100571.81;;;6.85;100.00
27294;BME280;14785;52.556;13.430;2023-04-02T02:20:27;100593.53;;;6.59;100.00
27294;BME280;14785;52.556;13.430;2023-04-02T02:22:53;100597.31;;;7.05;100.00
27294;BME280;14785;52.556;13.430;2023-04-02T02:25:28;100601.06;;;6.63;100.00
27294;BME280;14785;52.556;13.430;2023-04-02T02:28:22;100594.00;;;7.22;100.00
27294;BME280;14785;52.556;13.430;2023-04-02T02:30:58;100607.84;;;6.86;100.00
27294;BME280;14785;52.556;13.430;2023-04-02T02:33:32;100597.56;;;7.02;100.00
27294;BME280;14785;52.556;13.430;2023-04-02T02:36:03;100610.13;;;7.00;100.00
27294;BME280;14785;52.556;13.430;2023-04-02T02:41:07;100611.78;;;6.41;100.00
27294;BME280;14785;52.556;13.430;2023-04-02T02:43:40;100614.28;;;5.92;100.00
27294;BME280;14785;52.556;13.430;2023-04-02T02:46:13;100619.72;;;6.71;100.00
27294;BME280;14785;52.556;13.430;2023-04-02T02:48:43;100624.13;;;6.91;100.00
27294;BME280;14785;52.556;13.430;2023-04-02T02:51:19;100636.03;;;7.06;100.00
27294;BME280;14785;52.556;13.430;2023-04-02T02:53:49;100635.78;;;7.28;100.00
27294;BME280;14785;52.556;13.430;2023-04-02T02:56:16;100638.72;;;7.44;100.00
27294;BME280;14785;52.556;13.430;2023-04-02T02:58:43;100640.56;;;7.53;100.00
27294;BME280;14785;52.556;13.430;2023-04-02T03:01:08;100642.53;;;7.70;100.00
27294;BME280;14785;52.556;13.430;2023-04-02T03:03:34;100647.78;;;7.51;100.00
27294;BME280;14785;52.556;13.430;2023-04-02T03:06:03;100654.31;;;7.28;100.00
27294;BME280;14785;52.556;13.430;2023-04-02T03:08:43;100659.25;;;7.61;100.00
27294;BME280;14785;52.556;13.430;2023-04-02T03:11:31;100659.09;;;7.72;100.00
27294;BME280;14785;52.556;13.430;2023-04-02T03:14:19;100669.81;;;7.71;100.00
27294;BME280;14785;52.556;13.430;2023-04-02T03:16:50;100672.06;;;7.75;100.00
27294;BME280;14785;52.556;13.430;2023-04-02T03:19:34;100678.88;;;7.59;100.00
27294;BME280;14785;52.556;13.430;2023-04-02T03:22:12;100675.09;;;7.52;100.00
27294;BME280;14785;52.556;13.430;2023-04-02T03:24:53;100684.75;;;7.23;100.00
27294;BME280;14785;52.556;13.430;2023-04-02T03:27:27;100689.19;;;7.03;100.00
27294;BME280;14785;52.556;13.430;2023-04-02T03:32:50;100690.94;;;7.42;100.00
27294;BME280;14785;52.556;13.430;2023-04-02T03:38:21;100706.53;;;6.96;100.00
27294;BME280;14785;52.556;13.430;2023-04-02T03:43:39;100716.25;;;7.26;100.00
27294;BME280;14785;52.556;13.430;2023-04-02T03:46:27;100719.72;;;7.26;100.00
27294;BME280;14785;52.556;13.430;2023-04-02T03:48:58;100728.88;;;7.52;100.00
27294;BME280;14785;52.556;13.430;2023-04-02T03:51:39;100727.50;;;7.18;100.00
27294;BME280;14785;52.556;13.430;2023-04-02T03:54:12;100739.59;;;7.60;100.00
27294;BME280;14785;52.556;13.430;2023-04-02T03:56:39;100733.28;;;7.33;100.00
27294;BME280;14785;52.556;13.430;2023-04-02T04:02:25;100739.72;;;7.49;100.00
27294;BME280;14785;52.556;13.430;2023-04-02T04:04:57;100747.44;;;7.22;100.00
27294;BME280;14785;52.556;13.430;2023-04-02T04:07:35;100746.38;;;7.34;100.00
27294;BME280;14785;52.556;13.430;2023-04-02T04:10:03;100768.94;;;7.78;100.00
27294;BME280;14785;52.556;13.430;2023-04-02T04:12:39;100759.84;;;7.61;100.00
27294;BME280;14785;52.556;13.430;2023-04-02T04:15:08;100767.00;;;7.40;100.00
27294;BME280;14785;52.556;13.430;2023-04-02T04:20:39;100776.84;;;6.99;100.00
27294;BME280;14785;52.556;13.430;2023-04-02T04:23:18;100776.31;;;7.05;100.00
27294;BME280;14785;52.556;13.430;2023-04-02T04:26:02;100787.16;;;6.61;100.00
27294;BME280;14785;52.556;13.430;2023-04-02T04:28:46;100789.66;;;7.03;100.00
27294;BME280;14785;52.556;13.430;2023-04-02T04:31:22;100791.16;;;7.56;100.00
27294;BME280;14785;52.556;13.430;2023-04-02T04:33:54;100804.03;;;7.40;100.00
27294;BME280;14785;52.556;13.430;2023-04-02T04:36:54;100807.88;;;7.27;100.00
27294;BME280;14785;52.556;13.430;2023-04-02T04:39:30;100802.88;;;7.63;100.00
27294;BME280;14785;52.556;13.430;2023-04-02T04:42:00;100809.94;;;7.53;100.00
27294;BME280;14785;52.556;13.430;2023-04-02T04:44:48;100817.97;;;7.42;100.00
27294;BME280;14785;52.556;13.430;2023-04-02T04:47:19;100816.22;;;7.52;100.00
27294;BME280;14785;52.556;13.430;2023-04-02T04:50:02;100828.78;;;8.09;100.00
27294;BME280;14785;52.556;13.430;2023-04-02T04:52:32;100826.72;;;8.13;100.00
27294;BME280;14785;52.556;13.430;2023-04-02T04:55:00;100831.00;;;7.95;100.00
27294;BME280;14785;52.556;13.430;2023-04-02T04:57:30;100839.97;;;8.13;100.00
27294;BME280;14785;52.556;13.430;2023-04-02T05:00:34;100843.78;;;7.90;100.00
27294;BME280;14785;52.556;13.430;2023-04-02T05:06:12;100858.34;;;8.05;100.00
27294;BME280;14785;52.556;13.430;2023-04-02T05:08:46;100865.19;;;7.67;100.00
27294;BME280;14785;52.556;13.430;2023-04-02T05:11:30;100865.31;;;8.06;100.00
27294;BME280;14785;52.556;13.430;2023-04-02T05:14:00;100871.34;;;7.77;100.00
27294;BME280;14785;52.556;13.430;2023-04-02T05:16:35;100867.09;;;7.65;100.00
27294;BME280;14785;52.556;13.430;2023-04-02T05:24:27;100883.06;;;7.54;100.00
27294;BME280;14785;52.556;13.430;2023-04-02T05:27:26;100901.19;;;7.89;100.00
27294;BME280;14785;52.556;13.430;2023-04-02T05:30:02;100895.63;;;7.82;100.00
27294;BME280;14785;52.556;13.430;2023-04-02T05:32:32;100901.72;;;7.73;100.00
27294;BME280;14785;52.556;13.430;2023-04-02T05:35:00;100899.09;;;7.53;100.00
27294;BME280;14785;52.556;13.430;2023-04-02T05:37:29;100909.19;;;7.68;100.00
27294;BME280;14785;52.556;13.430;2023-04-02T05:39:58;100908.00;;;7.52;100.00
27294;BME280;14785;52.556;13.430;2023-04-02T05:42:30;100914.56;;;7.78;100.00
27294;BME280;14785;52.556;13.430;2023-04-02T05:47:46;100928.19;;;7.73;100.00
27294;BME280;14785;52.556;13.430;2023-04-02T05:50:34;100931.00;;;7.81;100.00
27294;BME280;14785;52.556;13.430;2023-04-02T05:56:02;100940.28;;;7.97;100.00
27294;BME280;14785;52.556;13.430;2023-04-02T06:01:13;100947.69;;;8.03;100.00
27294;BME280;14785;52.556;13.430;2023-04-02T06:04:12;100947.53;;;7.95;100.00
27294;BME280;14785;52.556;13.430;2023-04-02T06:09:26;100955.69;;;8.22;100.00
27294;BME280;14785;52.556;13.430;2023-04-02T06:14:41;100962.38;;;8.16;100.00
27294;BME280;14785;52.556;13.430;2023-04-02T06:17:10;100971.69;;;8.31;100.00
27294;BME280;14785;52.556;13.430;2023-04-02T06:19:38;100978.88;;;8.50;100.00
27294;BME280;14785;52.556;13.430;2023-04-02T06:22:07;100976.28;;;8.09;100.00
27294;BME280;14785;52.556;13.430;2023-04-02T06:24:36;100989.09;;;7.73;100.00
27294;BME280;14785;52.556;13.430;2023-04-02T06:27:04;100977.72;;;8.13;100.00
27294;BME280;14785;52.556;13.430;2023-04-02T06:29:34;100991.28;;;7.68;100.00
27294;BME280;14785;52.556;13.430;2023-04-02T06:32:09;100989.28;;;8.12;100.00
27294;BME280;14785;52.556;13.430;2023-04-02T06:34:37;100990.81;;;8.44;100.00
27294;BME280;14785;52.556;13.430;2023-04-02T06:37:33;100998.78;;;8.44;100.00
27294;BME280;14785;52.556;13.430;2023-04-02T06:40:02;101005.59;;;8.86;100.00
27294;BME280;14785;52.556;13.430;2023-04-02T06:42:36;101012.13;;;8.73;100.00
27294;BME280;14785;52.556;13.430;2023-04-02T06:45:04;101018.56;;;8.80;100.00
27294;BME280;14785;52.556;13.430;2023-04-02T06:47:36;101015.09;;;8.89;100.00
27294;BME280;14785;52.556;13.430;2023-04-02T06:50:15;101029.06;;;9.00;100.00
27294;BME280;14785;52.556;13.430;2023-04-02T06:52:49;101031.25;;;8.76;100.00
27294;BME280;14785;52.556;13.430;2023-04-02T06:57:52;101038.50;;;8.74;100.00
27294;BME280;14785;52.556;13.430;2023-04-02T07:00:29;101043.59;;;9.06;100.00
27294;BME280;14785;52.556;13.430;2023-04-02T07:02:59;101035.06;;;8.93;100.00
27294;BME280;14785;52.556;13.430;2023-04-02T07:05:26;101052.78;;;8.92;100.00
27294;BME280;14785;52.556;13.430;2023-04-02T07:07:51;101046.94;;;8.89;100.00
27294;BME280;14785;52.556;13.430;2023-04-02T07:10:17;101045.41;;;8.47;100.00
27294;BME280;14785;52.556;13.430;2023-04-02T07:12:45;101057.63;;;8.18;100.00
27294;BME280;14785;52.556;13.430;2023-04-02T07:15:14;101054.88;;;8.49;100.00
27294;BME280;14785;52.556;13.430;2023-04-02T07:17:40;101061.41;;;8.85;100.00
27294;BME280;14785;52.556;13.430;2023-04-02T07:20:06;101058.22;;;8.91;100.00
27294;BME280;14785;52.556;13.430;2023-04-02T07:22:31;101064.69;;;8.98;100.00
27294;BME280;14785;52.556;13.430;2023-04-02T07:24:56;101068.97;;;8.89;100.00
27294;BME280;14785;52.556;13.430;2023-04-02T07:27:22;101070.38;;;8.84;100.00
27294;BME280;14785;52.556;13.430;2023-04-02T07:29:51;101074.53;;;8.77;100.00
27294;BME280;14785;52.556;13.430;2023-04-02T07:32:16;101074.34;;;9.18;100.00
27294;BME280;14785;52.556;13.430;2023-04-02T07:34:43;101080.38;;;9.39;100.00
27294;BME280;14785;52.556;13.430;2023-04-02T07:37:12;101086.31;;;9.03;100.00
27294;BME280;14785;52.556;13.430;2023-04-02T07:39:38;101084.13;;;9.08;100.00
27294;BME280;14785;52.556;13.430;2023-04-02T07:42:03;101080.53;;;9.47;100.00
27294;BME280;14785;52.556;13.430;2023-04-02T07:44:29;101089.63;;;9.54;100.00
27294;BME280;14785;52.556;13.430;2023-04-02T07:46:55;101092.53;;;9.32;100.00
27294;BME280;14785;52.556;13.430;2023-04-02T07:49:20;101096.56;;;9.17;100.00
27294;BME280;14785;52.556;13.430;2023-04-02T07:51:46;101104.34;;;9.09;100.00
27294;BME280;14785;52.556;13.430;2023-04-02T07:54:12;101103.19;;;8.83;100.00
27294;BME280;14785;52.556;13.430;2023-04-02T07:56:38;101108.44;;;9.13;100.00
27294;BME280;14785;52.556;13.430;2023-04-02T07:59:03;101121.81;;;9.02;100.00
27294;BME280;14785;52.556;13.430;2023-04-02T08:01:29;101123.81;;;9.19;100.00
27294;BME280;14785;52.556;13.430;2023-04-02T08:04:00;101131.13;;;9.45;100.00
27294;BME280;14785;52.556;13.430;2023-04-02T08:06:26;101134.16;;;9.22;100.00
27294;BME280;14785;52.556;13.430;2023-04-02T08:08:55;101141.91;;;9.04;100.00
27294;BME280;14785;52.556;13.430;2023-04-02T08:11:20;101144.69;;;9.03;100.00
27294;BME280;14785;52.556;13.430;2023-04-02T08:13:46;101150.63;;;9.16;100.00
27294;BME280;14785;52.556;13.430;2023-04-02T08:16:12;101153.16;;;9.27;100.00
27294;BME280;14785;52.556;13.430;2023-04-02T08:18:37;101151.88;;;9.31;100.00
27294;BME280;14785;52.556;13.430;2023-04-02T08:21:09;101147.56;;;9.30;100.00
27294;BME280;14785;52.556;13.430;2023-04-02T08:23:35;101168.53;;;9.33;100.00
27294;BME280;14785;52.556;13.430;2023-04-02T08:26:01;101154.72;;;8.90;100.00
27294;BME280;14785;52.556;13.430;2023-04-02T08:28:27;101166.97;;;9.21;100.00
27294;BME280;14785;52.556;13.430;2023-04-02T08:30:52;101162.28;;;8.94;100.00
27294;BME280;14785;52.556;13.430;2023-04-02T08:33:19;101171.72;;;9.17;100.00
27294;BME280;14785;52.556;13.430;2023-04-02T08:35:47;101179.19;;;9.52;100.00
27294;BME280;14785;52.556;13.430;2023-04-02T08:38:14;101184.00;;;9.77;100.00
27294;BME280;14785;52.556;13.430;2023-04-02T08:40:43;101185.91;;;9.46;100.00
27294;BME280;14785;52.556;13.430;2023-04-02T08:48:36;101191.50;;;9.04;100.00
27294;BME280;14785;52.556;13.430;2023-04-02T08:51:05;101199.88;;;9.48;100.00
27294;BME280;14785;52.556;13.430;2023-04-02T08:53:35;101200.69;;;9.49;100.00
27294;BME280;14785;52.556;13.430;2023-04-02T08:58:53;101212.22;;;9.68;100.00
27294;BME280;14785;52.556;13.430;2023-04-02T09:04:34;101217.53;;;9.19;100.00
27294;BME280;14785;52.556;13.430;2023-04-02T09:07:01;101218.31;;;9.10;100.00
27294;BME280;14785;52.556;13.430;2023-04-02T09:09:27;101225.75;;;9.16;100.00
27294;BME280;14785;52.556;13.430;2023-04-02T09:11:54;101232.97;;;9.05;100.00
27294;BME280;14785;52.556;13.430;2023-04-02T09:14:41;101231.97;;;9.36;100.00
27294;BME280;14785;52.556;13.430;2023-04-02T09:17:18;101232.56;;;9.09;100.00
27294;BME280;14785;52.556;13.430;2023-04-02T09:19:53;101232.44;;;9.11;100.00
27294;BME280;14785;52.556;13.430;2023-04-02T09:22:22;101237.41;;;8.95;100.00
27294;BME280;14785;52.556;13.430;2023-04-02T09:24:52;101237.03;;;9.09;100.00
27294;BME280;14785;52.556;13.430;2023-04-02T09:27:24;101243.31;;;9.47;100.00
27294;BME280;14785;52.556;13.430;2023-04-02T09:30:01;101242.72;;;8.95;100.00
27294;BME280;14785;52.556;13.430;2023-04-02T09:32:50;101240.47;;;9.00;100.00
27294;BME280;14785;52.556;13.430;2023-04-02T09:35:20;101235.41;;;8.87;100.00
27294;BME280;14785;52.556;13.430;2023-04-02T09:37:46;101247.09;;;9.45;100.00
27294;BME280;14785;52.556;13.430;2023-04-02T09:40:26;101240.94;;;9.35;100.00
27294;BME280;14785;52.556;13.430;2023-04-02T09:43:04;101245.44;;;9.14;100.00
27294;BME280;14785;52.556;13.430;2023-04-02T09:45:30;101251.06;;;9.60;100.00
27294;BME280;14785;52.556;13.430;2023-04-02T09:47:56;101262.16;;;9.35;100.00
27294;BME280;14785;52.556;13.430;2023-04-02T09:52:51;101271.84;;;9.55;100.00
27294;BME280;14785;52.556;13.430;2023-04-02T09:57:48;101277.34;;;9.63;100.00
27294;BME280;14785;52.556;13.430;2023-04-02T10:00:25;101280.03;;;9.33;100.00
27294;BME280;14785;52.556;13.430;2023-04-02T10:05:45;101285.53;;;9.90;100.00
27294;BME280;14785;52.556;13.430;2023-04-02T10:08:19;101290.56;;;9.93;100.00
27294;BME280;14785;52.556;13.430;2023-04-02T10:10:48;101299.19;;;10.25;100.00
27294;BME280;14785;52.556;13.430;2023-04-02T10:18:49;101308.56;;;10.77;100.00
27294;BME280;14785;52.556;13.430;2023-04-02T10:21:23;101329.56;;;10.89;100.00
27294;BME280;14785;52.556;13.430;2023-04-02T10:23:53;101328.13;;;11.04;100.00
27294;BME280;14785;52.556;13.430;2023-04-02T10:40:35;101341.19;;;10.50;100.00
27294;BME280;14785;52.556;13.430;2023-04-02T10:45:52;101345.22;;;10.45;100.00
27294;BME280;14785;52.556;13.430;2023-04-02T10:54:28;101338.50;;;13.05;100.00
27294;BME280;14785;52.556;13.430;2023-04-02T10:57:03;101345.00;;;13.28;100.00
27294;BME280;14785;52.556;13.430;2023-04-02T10:59:33;101342.47;;;12.31;100.00
27294;BME280;14785;52.556;13.430;2023-04-02T11:02:02;101359.47;;;11.29;100.00
27294;BME280;14785;52.556;13.430;2023-04-02T11:04:44;101345.84;;;11.79;100.00
27294;BME280;14785;52.556;13.430;2023-04-02T11:07:17;101350.69;;;11.66;100.00
27294;BME280;14785;52.556;13.430;2023-04-02T11:09:50;101362.84;;;12.05;100.00
27294;BME280;14785;52.556;13.430;2023-04-02T11:12:22;101376.06;;;11.70;100.00
27294;BME280;14785;52.556;13.430;2023-04-02T11:14:50;101374.59;;;12.12;100.00
27294;BME280;14785;52.556;13.430;2023-04-02T11:17:18;101383.22;;;12.23;100.00
27294;BME280;14785;52.556;13.430;2023-04-02T11:19:44;101392.16;;;11.78;100.00
27294;BME280;14785;52.556;13.430;2023-04-02T11:22:19;101387.28;;;11.64;100.00
27294;BME280;14785;52.556;13.430;2023-04-02T11:24:53;101398.94;;;11.63;100.00
27294;BME280;14785;52.556;13.430;2023-04-02T11:27:31;101397.13;;;11.53;100.00
27294;BME280;14785;52.556;13.430;2023-04-02T11:30:19;101400.00;;;11.04;100.00
27294;BME280;14785;52.556;13.430;2023-04-02T11:32:47;101398.53;;;11.94;100.00
27294;BME280;14785;52.556;13.430;2023-04-02T11:35:35;101405.78;;;13.26;100.00
27294;BME280;14785;52.556;13.430;2023-04-02T11:48:53;101409.13;;;13.79;100.00
27294;BME280;14785;52.556;13.430;2023-04-02T11:53:45;101413.44;;;14.47;100.00
27294;BME280;14785;52.556;13.430;2023-04-02T11:59:24;101425.78;;;14.24;100.00
27294;BME280;14785;52.556;13.430;2023-04-02T12:02:26;101429.69;;;13.27;100.00
27294;BME280;14785;52.556;13.430;2023-04-02T12:05:09;101427.03;;;12.65;100.00
27294;BME280;14785;52.556;13.430;2023-04-02T12:07:56;101430.00;;;12.62;100.00
27294;BME280;14785;52.556;13.430;2023-04-02T12:10:52;101440.09;;;12.24;100.00
27294;BME280;14785;52.556;13.430;2023-04-02T12:13:20;101447.75;;;12.00;100.00
27294;BME280;14785;52.556;13.430;2023-04-02T12:16:06;101438.56;;;12.66;100.00
27294;BME280;14785;52.556;13.430;2023-04-02T12:18:33;101443.78;;;12.85;100.00
27294;BME280;14785;52.556;13.430;2023-04-02T12:21:01;101443.56;;;12.96;100.00
27294;BME280;14785;52.556;13.430;2023-04-02T12:26:03;101449.16;;;13.20;100.00
27294;BME280;14785;52.556;13.430;2023-04-02T12:28:31;101456.56;;;13.26;100.00
27294;BME280;14785;52.556;13.430;2023-04-02T12:31:18;101452.91;;;13.53;100.00
27294;BME280;14785;52.556;13.430;2023-04-02T12:33:45;101455.50;;;14.21;100.00
27294;BME280;14785;52.556;13.430;2023-04-02T12:38:52;101467.53;;;13.66;100.00
27294;BME280;14785;52.556;13.430;2023-04-02T12:41:28;101470.19;;;14.51;97.83
27294;BME280;14785;52.556;13.430;2023-04-02T12:44:03;101469.94;;;14.28;99.17
27294;BME280;14785;52.556;13.430;2023-04-02T12:46:30;101475.56;;;13.92;100.00
27294;BME280;14785;52.556;13.430;2023-04-02T12:49:10;101466.56;;;13.06;98.57
27294;BME280;14785;52.556;13.430;2023-04-02T12:51:38;101471.09;;;13.75;100.00
27294;BME280;14785;52.556;13.430;2023-04-02T12:54:04;101462.81;;;15.26;94.82
27294;BME280;14785;52.556;13.430;2023-04-02T12:56:29;101466.50;;;15.66;89.51
27294;BME280;14785;52.556;13.430;2023-04-02T12:58:59;101469.53;;;15.79;97.05
27294;BME280;14785;52.556;13.430;2023-04-02T13:01:26;101472.19;;;15.22;92.55
27294;BME280;14785;52.556;13.430;2023-04-02T13:06:27;101473.13;;;14.06;92.03
27294;BME280;14785;52.556;13.430;2023-04-02T13:08:55;101476.03;;;13.87;95.12
27294;BME280;14785;52.556;13.430;2023-04-02T13:11:21;101467.69;;;13.21;98.36
27294;BME280;14785;52.556;13.430;2023-04-02T13:13:48;101477.22;;;13.24;100.00
27294;BME280;14785;52.556;13.430;2023-04-02T13:18:41;101470.72;;;13.26;100.00
27294;BME280;14785;52.556;13.430;2023-04-02T13:23:38;101481.44;;;14.54;86.15
27294;BME280;14785;52.556;13.430;2023-04-02T13:26:19;101481.25;;;15.29;84.38
27294;BME280;14785;52.556;13.430;2023-04-02T13:29:16;101473.41;;;16.31;89.99
27294;BME280;14785;52.556;13.430;2023-04-02T13:31:43;101476.66;;;16.57;74.46
27294;BME280;14785;52.556;13.430;2023-04-02T13:34:08;101483.06;;;16.48;72.09
27294;BME280;14785;52.556;13.430;2023-04-02T13:36:34;101476.84;;;15.04;89.10
27294;BME280;14785;52.556;13.430;2023-04-02T13:38:59;101495.28;;;14.50;93.34
27294;BME280;14785;52.556;13.430;2023-04-02T13:41:30;101489.88;;;13.57;90.51
27294;BME280;14785;52.556;13.430;2023-04-02T13:43:58;101500.34;;;13.76;100.00
27294;BME280;14785;52.556;13.430;2023-04-02T13:46:28;101503.56;;;14.05;100.00
27294;BME280;14785;52.556;13.430;2023-04-02T13:48:54;101493.59;;;15.06;84.20
27294;BME280;14785;52.556;13.430;2023-04-02T13:51:23;101499.03;;;15.71;93.28
27294;BME280;14785;52.556;13.430;2023-04-02T13:53:55;101501.69;;;15.14;87.71
27294;BME280;14785;52.556;13.430;2023-04-02T13:56:21;101501.78;;;14.47;87.42
27294;BME280;14785;52.556;13.430;2023-04-02T13:58:49;101515.88;;;13.98;94.80
27294;BME280;14785;52.556;13.430;2023-04-02T14:01:16;101506.72;;;13.75;97.40
27294;BME280;14785;52.556;13.430;2023-04-02T14:03:41;101508.66;;;14.91;91.35
27294;BME280;14785;52.556;13.430;2023-04-02T14:06:16;101511.78;;;15.53;81.77
27294;BME280;14785;52.556;13.430;2023-04-02T14:17:10;101517.84;;;13.45;100.00
27294;BME280;14785;52.556;13.430;2023-04-02T14:42:01;101530.03;;;15.89;81.31
27294;BME280;14785;52.556;13.430;2023-04-02T14:44:32;101539.97;;;14.99;94.30
27294;BME280;14785;52.556;13.430;2023-04-02T14:47:15;101545.22;;;13.65;94.97
27294;BME280;14785;52.556;13.430;2023-04-02T14:49:44;101550.38;;;13.84;89.67
27294;BME280;14785;52.556;13.430;2023-04-02T14:52:17;101556.13;;;14.40;99.79
27294;BME280;14785;52.556;13.430;2023-04-02T14:55:04;101557.56;;;13.83;86.65
27294;BME280;14785;52.556;13.430;2023-04-02T14:57:37;101560.78;;;13.87;100.00
27294;BME280;14785;52.556;13.430;2023-04-02T15:03:09;101554.63;;;15.20;94.59
27294;BME280;14785;52.556;13.430;2023-04-02T15:10:54;101566.06;;;13.61;86.55
27294;BME280;14785;52.556;13.430;2023-04-02T15:13:26;101573.41;;;12.97;95.25
27294;BME280;14785;52.556;13.430;2023-04-02T15:15:59;101578.25;;;12.57;100.00
27294;BME280;14785;52.556;13.430;2023-04-02T15:18:29;101587.41;;;12.81;100.00
27294;BME280;14785;52.556;13.430;2023-04-02T15:24:12;101581.94;;;14.49;82.40
27294;BME280;14785;52.556;13.430;2023-04-02T15:26:57;101588.47;;;13.60;94.64
27294;BME280;14785;52.556;13.430;2023-04-02T15:29:41;101593.25;;;12.94;91.93
27294;BME280;14785;52.556;13.430;2023-04-02T15:32:45;101602.00;;;12.87;100.00
27294;BME280;14785;52.556;13.430;2023-04-02T15:38:19;101592.75;;;14.65;82.22
27294;BME280;14785;52.556;13.430;2023-04-02T15:41:21;101604.53;;;14.80;84.61
27294;BME280;14785;52.556;13.430;2023-04-02T15:43:55;101607.44;;;13.39;79.84
27294;BME280;14785;52.556;13.430;2023-04-02T15:52:09;101620.94;;;13.20;100.00
27294;BME280;14785;52.556;13.430;2023-04-02T15:54:54;101626.31;;;14.26;95.69
27294;BME280;14785;52.556;13.430;2023-04-02T16:10:21;101644.09;;;12.20;100.00
27294;BME280;14785;52.556;13.430;2023-04-02T16:12:49;101651.69;;;11.96;100.00
27294;BME280;14785;52.556;13.430;2023-04-02T16:15:20;101647.19;;;11.87;100.00
27294;BME280;14785;52.556;13.430;2023-04-02T16:17:53;101646.63;;;11.74;100.00
27294;BME280;14785;52.556;13.430;2023-04-02T16:20:31;101657.13;;;12.13;100.00
27294;BME280;14785;52.556;13.430;2023-04-02T16:23:02;101661.97;;;12.56;98.75
27294;BME280;14785;52.556;13.430;2023-04-02T16:25:42;101672.22;;;12.97;96.21
27294;BME280;14785;52.556;13.430;2023-04-02T16:28:35;101678.19;;;13.18;98.43
27294;BME280;14785;52.556;13.430;2023-04-02T16:31:09;101687.56;;;12.39;98.96
27294;BME280;14785;52.556;13.430;2023-04-02T16:34:21;101684.59;;;12.52;98.57
27294;BME280;14785;52.556;13.430;2023-04-02T16:36:48;101679.47;;;12.03;100.00
27294;BME280;14785;52.556;13.430;2023-04-02T16:42:40;101707.50;;;12.45;98.94
27294;BME280;14785;52.556;13.430;2023-04-02T16:48:04;101706.34;;;12.57;100.00
27294;BME280;14785;52.556;13.430;2023-04-02T16:50:35;101712.56;;;11.72;100.00
27294;BME280;14785;52.556;13.430;2023-04-02T17:02:03;101729.41;;;12.01;100.00
27294;BME280;14785;52.556;13.430;2023-04-02T17:04:57;101740.91;;;11.73;100.00